createdAt,value
2023-07-05T00:01:30.390Z,15.6
2023-07-05T00:03:33.447Z,15.5
2023-07-05T00:05:39.581Z,15.5
2023-07-05T00:32:22.216Z,14.7
2023-07-05T00:34:28.288Z,14.7
2023-07-05T00:38:34.374Z,14.7
2023-07-05T00:39:37.489Z,14.7
2023-07-05T00:41:40.502Z,14.8
2023-07-05T00:43:43.597Z,14.7
2023-07-05T00:45:46.638Z,14.8
2023-07-05T00:49:55.738Z,14.8
2023-07-05T00:54:01.785Z,14.8
2023-07-05T00:56:04.847Z,14.8
2023-07-05T01:02:17.100Z,14.9
2023-07-05T01:14:35.273Z,14.9
2023-07-05T01:18:44.481Z,15
2023-07-05T01:20:47.536Z,15
2023-07-05T01:22:50.554Z,15.1
2023-07-05T01:31:05.838Z,15.1
2023-07-05T01:36:14.975Z,15.1
2023-07-05T01:46:33.337Z,15.1
2023-07-05T01:48:36.360Z,15.1
2023-07-05T01:50:39.375Z,15.1
2023-07-05T01:52:42.407Z,15.2
2023-07-05T01:54:45.428Z,15.2
2023-07-05T02:00:57.705Z,15.3
2023-07-05T02:03:00.753Z,15.2
2023-07-05T02:13:19.014Z,15.3
2023-07-05T02:17:25.088Z,15.3
2023-07-05T02:19:28.084Z,15.2
2023-07-05T02:21:31.083Z,15.3
2023-07-05T02:23:34.107Z,15.2
2023-07-05T02:25:37.166Z,15.3
2023-07-05T02:27:43.321Z,15.2
2023-07-05T02:29:46.326Z,15.3
2023-07-05T02:31:49.369Z,15.3
2023-07-05T02:48:37.501Z,15.8
2023-07-05T02:54:49.710Z,15.6
2023-07-05T03:00:58.807Z,15.7
2023-07-05T03:03:01.879Z,15.7
2023-07-05T03:05:04.864Z,15.8
2023-07-05T03:07:07.885Z,15.7
2023-07-05T03:11:17.078Z,15.8
2023-07-05T03:13:20.214Z,15.9
2023-07-05T03:15:23.155Z,15.7
2023-07-05T03:17:26.171Z,15.7
2023-07-05T03:19:29.171Z,15.7
2023-07-05T03:21:32.217Z,15.6
2023-07-05T03:23:38.347Z,15.7
2023-07-05T03:32:53.607Z,15.2
2023-07-05T03:34:58.080Z,15.2
2023-07-05T03:37:02.775Z,15
2023-07-05T03:41:08.801Z,14.9
2023-07-05T03:43:11.819Z,14.9
2023-07-05T03:47:17.938Z,14.7
2023-07-05T03:53:30.120Z,14.3
2023-07-05T04:03:45.386Z,14.2
2023-07-05T04:05:51.416Z,14.2
2023-07-05T04:07:54.431Z,14.1
2023-07-05T04:09:57.585Z,14.2
2023-07-05T04:12:00.739Z,14.2
2023-07-05T04:14:03.926Z,14.2
2023-07-05T04:16:07.093Z,14.2
2023-07-05T04:18:10.174Z,14.3
2023-07-05T04:20:16.278Z,14.3
2023-07-05T04:22:19.294Z,14.2
2023-07-05T04:24:22.452Z,14.2
2023-07-05T04:25:25.631Z,14.3
2023-07-05T04:27:28.749Z,14.3
2023-07-05T04:29:31.934Z,14.3
2023-07-05T04:31:35.097Z,14.3
2023-07-05T04:33:41.391Z,14.3
2023-07-05T04:35:44.565Z,14.1
2023-07-05T04:37:47.716Z,14.2
2023-07-05T04:39:50.846Z,14.4
2023-07-05T04:41:53.983Z,14.3
2023-07-05T04:52:12.864Z,14.3
2023-07-05T04:56:19.151Z,14.7
2023-07-05T04:58:22.289Z,14.6
2023-07-05T05:00:25.452Z,14.5
2023-07-05T05:02:31.862Z,14.6
2023-07-05T05:04:34.723Z,14.7
2023-07-05T05:08:40.986Z,14.7
2023-07-05T05:10:44.014Z,14.6
2023-07-05T05:12:47.019Z,14.7
2023-07-05T05:14:50.076Z,14.5
2023-07-05T05:16:56.395Z,14.5
2023-07-05T05:18:59.330Z,14.6
2023-07-05T05:21:02.388Z,14.6
2023-07-05T05:22:05.470Z,14.5
2023-07-05T05:36:29.860Z,15.1
2023-07-05T05:38:32.874Z,15.1
2023-07-05T05:40:35.967Z,15.1
2023-07-05T05:42:38.987Z,15.1
2023-07-05T05:44:45.093Z,15.1
2023-07-05T05:48:51.177Z,15.1
2023-07-05T05:50:56.040Z,15.1
2023-07-05T05:52:58.738Z,15
2023-07-05T05:55:01.785Z,14.9
2023-07-05T05:59:10.955Z,14.9
2023-07-05T06:03:17.097Z,14.7
2023-07-05T06:13:35.358Z,14.4
2023-07-05T06:20:12.590Z,14.3
2023-07-05T06:22:14.041Z,14.4
2023-07-05T06:24:17.025Z,14.1
2023-07-05T06:28:26.245Z,14
2023-07-05T06:30:29.333Z,14
2023-07-05T06:32:32.446Z,14.2
2023-07-05T06:34:35.440Z,14.1
2023-07-05T06:36:38.561Z,14.2
2023-07-05T06:38:41.702Z,14.4
2023-07-05T06:40:48.058Z,14.5
2023-07-05T06:42:51.182Z,14.4
2023-07-05T06:44:54.305Z,14.2
2023-07-05T06:46:57.552Z,13.8
2023-07-05T06:51:03.723Z,13.7
2023-07-05T06:57:16.364Z,13
2023-07-05T06:59:19.480Z,12.7
2023-07-05T07:01:22.736Z,12.4
2023-07-05T07:03:25.743Z,12.5
2023-07-05T07:07:32.009Z,12.6
2023-07-05T07:13:44.733Z,12.8
2023-07-05T07:14:47.808Z,12.7
2023-07-05T07:16:51.043Z,12.7
2023-07-05T07:18:54.063Z,12.8
2023-07-05T07:20:57.206Z,12.8
2023-07-05T07:23:03.568Z,12.6
2023-07-05T07:25:06.700Z,12.6
2023-07-05T07:27:09.809Z,12.4
2023-07-05T07:29:13.003Z,12.5
2023-07-05T07:31:16.121Z,12.5
2023-07-05T07:35:22.376Z,12.4
2023-07-05T07:37:28.759Z,12.2
2023-07-05T07:39:31.877Z,12.3
2023-07-05T07:41:35.934Z,12.4
2023-07-05T07:43:38.156Z,12.3
2023-07-05T07:45:41.374Z,12.4
2023-07-05T07:47:44.420Z,12.3
2023-07-05T07:49:47.566Z,12.1
2023-07-05T07:51:53.911Z,12.1
2023-07-05T07:53:57.059Z,12.1
2023-07-05T07:56:00.195Z,12.1
2023-07-05T07:58:03.323Z,12.1
2023-07-05T08:02:09.620Z,12.4
2023-07-05T08:06:19.061Z,12.5
2023-07-05T08:08:22.224Z,12.5
2023-07-05T08:10:25.462Z,12.5
2023-07-05T08:11:28.544Z,12.5
2023-07-05T08:42:22.013Z,12.6
2023-07-05T08:44:25.161Z,12.6
2023-07-05T08:46:28.249Z,12.9
2023-07-05T08:50:39.916Z,12.7
2023-07-05T08:56:47.119Z,12.9
2023-07-05T09:02:59.833Z,13.1
2023-07-05T09:07:05.994Z,13
2023-07-05T09:08:09.172Z,13
2023-07-05T09:20:31.149Z,13.9
2023-07-05T09:22:34.434Z,14
2023-07-05T09:24:37.382Z,13.9
2023-07-05T09:26:40.511Z,13.4
2023-07-05T09:28:43.658Z,13.6
2023-07-05T09:30:50.037Z,13.5
2023-07-05T09:34:56.287Z,13.7
2023-07-05T09:36:59.404Z,13.9
2023-07-05T09:51:24.544Z,14.2
2023-07-05T09:53:27.702Z,14.1
2023-07-05T09:57:33.983Z,14.4
2023-07-05T09:59:40.374Z,14.6
2023-07-05T10:06:16.027Z,15.2
2023-07-05T10:08:19.059Z,15.1
2023-07-05T10:10:22.080Z,15.4
2023-07-05T10:12:28.241Z,15.4
2023-07-05T10:14:31.263Z,15.3
2023-07-05T10:18:37.312Z,15.7
2023-07-05T10:24:46.397Z,15.7
2023-07-05T10:26:52.567Z,15.2
2023-07-05T10:28:55.612Z,14.9
2023-07-05T10:30:58.642Z,15.2
2023-07-05T10:33:01.733Z,15.1
2023-07-05T10:35:04.685Z,15
2023-07-05T10:37:07.737Z,15.1
2023-07-05T10:41:16.897Z,14.6
2023-07-05T10:57:44.278Z,14.9
2023-07-05T10:59:47.285Z,14.6
2023-07-05T11:00:50.356Z,14.6
2023-07-05T11:02:53.483Z,14.9
2023-07-05T11:04:56.480Z,15
2023-07-05T11:06:59.481Z,15.1
2023-07-05T11:11:08.647Z,14.6
2023-07-05T11:13:11.689Z,14.1
2023-07-05T11:17:17.757Z,13.7
2023-07-05T11:19:20.770Z,13.7
2023-07-05T11:21:23.824Z,13.8
2023-07-05T11:23:30.184Z,13.7
2023-07-05T11:25:33.171Z,13.7
2023-07-05T11:39:58.313Z,13.3
2023-07-05T11:42:01.424Z,13.3
2023-07-05T11:44:04.601Z,13.3
2023-07-05T11:46:09.338Z,13.4
2023-07-05T11:54:24.964Z,13.3
2023-07-05T11:56:28.128Z,13.2
2023-07-05T11:57:31.313Z,13.2
2023-07-05T12:03:40.717Z,13.3
2023-07-05T12:20:12.162Z,14.3
2023-07-05T12:22:15.286Z,14.3
2023-07-05T12:24:18.430Z,14.5
2023-07-05T12:26:21.562Z,14.5
2023-07-05T12:36:40.444Z,14.7
2023-07-05T12:42:49.833Z,14.2
2023-07-05T12:44:52.955Z,14.1
2023-07-05T12:46:56.091Z,14
2023-07-05T12:49:02.481Z,14.3
2023-07-05T12:54:11.897Z,14.1
2023-07-05T12:56:15.000Z,14.1
2023-07-05T12:58:18.180Z,14
2023-07-05T13:00:21.261Z,14.1
2023-07-05T13:02:27.714Z,14
2023-07-05T13:04:30.982Z,14.1
2023-07-05T13:06:33.904Z,13.9
2023-07-05T13:08:37.042Z,13.8
2023-07-05T13:10:40.167Z,14
2023-07-05T13:12:43.290Z,14
2023-07-05T13:14:46.430Z,14.2
2023-07-05T13:18:55.947Z,14.5
2023-07-05T13:20:59.056Z,14.3
2023-07-05T13:23:02.247Z,14.3
2023-07-05T13:25:05.353Z,14.1
2023-07-05T13:31:17.966Z,13.6
2023-07-05T13:33:21.099Z,13.4
2023-07-05T13:39:30.506Z,13.3
2023-07-05T13:41:33.608Z,13.2
2023-07-05T13:43:36.758Z,13
2023-07-05T13:45:43.105Z,13
2023-07-05T13:49:49.337Z,13.1
2023-07-05T13:58:31.701Z,13
2023-07-05T14:00:34.897Z,13.1
2023-07-05T14:06:44.287Z,13.1
2023-07-05T14:08:47.388Z,12.8
2023-07-05T14:12:56.906Z,13
2023-07-05T14:14:59.961Z,13.2
2023-07-05T14:17:03.106Z,13.3
2023-07-05T14:21:09.358Z,13.6
2023-07-05T14:23:12.489Z,13.5
2023-07-05T14:25:15.701Z,13.5
2023-07-05T14:27:21.923Z,13.5
2023-07-05T14:29:25.082Z,13.6
2023-07-05T14:31:28.267Z,13.7
2023-07-05T14:35:35.261Z,13.9
2023-07-05T14:45:53.355Z,15.1
2023-07-05T14:46:56.454Z,15.2
2023-07-05T14:48:59.441Z,15.3
2023-07-05T14:51:02.489Z,15.3
2023-07-05T14:53:05.510Z,14.9
2023-07-05T14:55:11.621Z,15
2023-07-05T14:57:14.688Z,15
2023-07-05T15:01:20.744Z,15.9
2023-07-05T15:03:23.766Z,15.8
2023-07-05T15:05:26.772Z,16.1
2023-07-05T15:07:29.779Z,15.8
2023-07-05T15:11:38.965Z,17
2023-07-05T15:13:41.992Z,16.9
2023-07-05T15:15:45.120Z,17
2023-07-05T15:17:48.077Z,16.6
2023-07-05T15:19:51.032Z,16.2
2023-07-05T15:21:54.082Z,15.9
2023-07-05T15:24:00.184Z,15.6
2023-07-05T15:26:03.210Z,15.3
2023-07-05T15:28:06.282Z,15.3
2023-07-05T15:30:09.255Z,15.2
2023-07-05T15:32:12.222Z,14.9
2023-07-05T15:36:18.287Z,14.7
2023-07-05T15:38:24.409Z,14.6
2023-07-05T15:40:27.445Z,14.5
2023-07-05T15:42:30.456Z,14.5
2023-07-05T16:00:00.930Z,14.7
2023-07-05T16:04:07.174Z,15.1
2023-07-05T16:06:13.228Z,17.3
2023-07-05T16:08:16.197Z,18.1
2023-07-05T16:10:19.222Z,18.9
2023-07-05T16:12:22.242Z,17.2
2023-07-05T16:18:31.361Z,17.1
2023-07-05T16:26:46.494Z,17.4
2023-07-05T16:32:55.538Z,16.6
2023-07-05T16:37:04.632Z,16.4
2023-07-05T16:39:07.662Z,16.6
2023-07-05T16:40:10.750Z,16.6
2023-07-05T16:42:13.728Z,16.8
2023-07-05T16:44:16.702Z,16.8
2023-07-05T16:46:19.787Z,16.4
2023-07-05T16:48:25.885Z,16.4
2023-07-05T16:54:34.898Z,16.2
2023-07-05T16:56:37.874Z,16.3
2023-07-05T16:58:40.898Z,16.6
2023-07-05T17:02:50.158Z,16.8
2023-07-05T17:04:53.028Z,16.7
2023-07-05T17:08:59.058Z,16.6
2023-07-05T17:11:02.039Z,16.5
2023-07-05T17:15:08.090Z,16.7
2023-07-05T17:17:14.201Z,16.7
2023-07-05T17:19:17.219Z,16.7
2023-07-05T17:21:20.226Z,16.5
2023-07-05T17:31:38.420Z,16.1
2023-07-05T17:33:41.398Z,16
2023-07-05T17:35:44.452Z,16
2023-07-05T17:38:13.931Z,16.2
2023-07-05T17:40:16.940Z,16.3
2023-07-05T17:42:21.510Z,16.2
2023-07-05T17:44:27.598Z,16.2
2023-07-05T17:46:30.630Z,16.1
2023-07-05T17:48:33.629Z,16.1
2023-07-05T17:50:36.640Z,16.1
2023-07-05T17:52:39.659Z,15.9
2023-07-05T17:54:42.667Z,15.8
2023-07-05T17:56:45.691Z,16
2023-07-05T17:58:51.864Z,15.9
2023-07-05T18:00:55.107Z,15.8
2023-07-05T18:02:57.973Z,15.8
2023-07-05T18:05:01.004Z,15.9
2023-07-05T18:07:03.925Z,16
2023-07-05T18:09:06.958Z,16
2023-07-05T18:11:09.992Z,16
2023-07-05T18:15:19.147Z,15.6
2023-07-05T18:17:22.209Z,15.8
2023-07-05T18:21:28.211Z,15.6
2023-07-05T18:27:40.414Z,15.5
2023-07-05T18:29:43.408Z,15.5
2023-07-05T18:31:46.503Z,15.6
2023-07-05T18:51:19.889Z,15.4
2023-07-05T18:55:29.049Z,15.4
2023-07-05T18:57:32.088Z,15.3
2023-07-05T18:59:35.127Z,15.3
2023-07-05T19:01:38.176Z,15.2
2023-07-05T19:03:42.684Z,15.1
2023-07-05T19:05:44.185Z,15.1
2023-07-05T19:07:47.174Z,15.1
2023-07-05T19:09:53.359Z,15
2023-07-05T19:11:56.366Z,15
2023-07-05T19:13:59.576Z,15
2023-07-05T19:16:02.397Z,15
2023-07-05T19:18:05.458Z,15
2023-07-05T19:20:08.484Z,15
2023-07-05T19:24:18.005Z,14.8
2023-07-05T19:26:20.998Z,14.9
2023-07-05T19:28:23.976Z,14.8
2023-07-05T19:29:27.063Z,14.8
2023-07-05T19:39:45.528Z,14.6
2023-07-05T19:41:48.560Z,14.5
2023-07-05T19:43:51.641Z,14.5
2023-07-05T19:45:54.868Z,14.4
2023-07-05T19:50:00.889Z,14.3
2023-07-05T19:52:07.236Z,14.3
2023-07-05T19:54:10.320Z,14.4
2023-07-05T19:56:13.498Z,14.3
2023-07-05T19:58:16.597Z,14.2
2023-07-05T20:00:19.692Z,14.3
2023-07-05T20:02:22.864Z,14.1
2023-07-05T20:04:25.994Z,14.2
2023-07-05T20:06:32.306Z,14.1
2023-07-05T20:08:35.442Z,14.1
2023-07-05T20:10:38.592Z,14
2023-07-05T20:12:41.700Z,14
2023-07-05T20:14:44.813Z,14
2023-07-05T20:16:47.999Z,14
2023-07-05T20:18:51.110Z,14.1
2023-07-05T20:21:08.557Z,14.1
2023-07-05T20:23:00.566Z,14
2023-07-05T20:25:03.684Z,14
2023-07-05T20:26:06.852Z,14.1
2023-07-05T20:36:25.211Z,13.9
2023-07-05T20:38:28.205Z,13.9
2023-07-05T20:42:34.276Z,13.8
2023-07-05T20:44:37.270Z,13.8
2023-07-05T20:46:40.385Z,13.8
2023-07-05T20:48:46.453Z,13.7
2023-07-05T20:50:49.467Z,13.8
2023-07-05T20:54:55.541Z,13.6
2023-07-05T20:56:58.551Z,13.5
2023-07-05T21:01:04.623Z,13.5
2023-07-05T21:03:10.729Z,13.5
2023-07-05T21:09:19.818Z,13.5
2023-07-05T21:11:22.816Z,13.4
2023-07-05T21:26:14.106Z,13.1
2023-07-05T21:28:17.284Z,13.2
2023-07-05T21:32:26.770Z,13.1
2023-07-05T21:34:29.869Z,13.1
2023-07-05T21:36:32.976Z,13.1
2023-07-05T21:38:36.093Z,13
2023-07-05T21:40:39.216Z,13.1
2023-07-05T21:42:42.350Z,13
2023-07-05T21:44:48.679Z,12.9
2023-07-05T21:46:51.814Z,12.9
2023-07-05T21:48:54.946Z,12.9
2023-07-05T21:50:58.059Z,12.9
2023-07-05T21:53:01.176Z,12.9
2023-07-05T21:55:04.320Z,12.9
2023-07-05T21:57:07.451Z,12.8
2023-07-05T21:59:13.784Z,12.8
2023-07-05T22:01:17.005Z,12.8
2023-07-05T22:03:20.206Z,12.7
2023-07-05T22:07:26.278Z,12.7
2023-07-05T22:09:29.427Z,12.7
2023-07-05T22:11:32.536Z,12.9
2023-07-05T22:17:45.187Z,12.8
2023-07-05T22:18:48.316Z,12.8
2023-07-05T22:20:51.525Z,12.7
2023-07-05T22:22:54.537Z,12.8
2023-07-05T22:24:57.680Z,12.7
2023-07-05T22:27:04.027Z,12.6
2023-07-05T22:29:07.175Z,12.7
2023-07-05T22:31:10.359Z,12.6
2023-07-05T22:37:19.654Z,12.5
2023-07-05T22:43:32.274Z,12.6
2023-07-05T22:45:35.361Z,12.5
2023-07-05T22:47:38.557Z,12.6
2023-07-05T22:49:41.615Z,12.7
2023-07-05T22:51:44.728Z,12.6
2023-07-05T22:53:47.847Z,12.7
2023-07-05T22:57:57.320Z,12.7
2023-07-05T23:08:12.926Z,12.6
2023-07-05T23:10:19.274Z,12.5
2023-07-05T23:12:22.380Z,12.6
2023-07-05T23:14:25.510Z,12.6
2023-07-05T23:15:28.651Z,12.6
2023-07-05T23:17:31.846Z,12.6
2023-07-05T23:19:34.897Z,12.6
2023-07-05T23:21:38.042Z,12.6
2023-07-05T23:23:44.408Z,12.5
2023-07-05T23:25:47.482Z,12.6
2023-07-05T23:29:53.752Z,12.5
2023-07-05T23:33:59.978Z,12.4
2023-07-05T23:36:03.141Z,12.3
2023-07-05T23:38:10.983Z,12.4
2023-07-05T23:46:23.498Z,12.3
2023-07-05T23:48:26.645Z,12.3
2023-07-05T23:50:29.779Z,12.3
2023-07-05T23:52:36.100Z,12.2
2023-07-05T23:54:39.222Z,12.2
2023-07-05T23:56:42.335Z,12.1
2023-07-05T23:58:45.441Z,12.2
